Time;durP1;ratioP1;P1;durP2;ratioP2;P2;SDS_P1;SDS_P2;PMS_P1;PMS_P2;Temp;Humidity;BMP_temperature;BMP_pressure;BME280_temperature;BME280_humidity;BME280_pressure;Samples;Min_cycle;Max_cycle;Signal;HPM_P1;HPM_P2
2023/06/07 00:01:05;;;;;;;7.65;3.97;;;15.30;99.90;;;;;;5039126;28;20447;-63
2023/06/07 00:03:33;;;;;;;6.25;3.47;;;15.30;99.90;;;;;;5038657;28;20044;-63
2023/06/07 00:06:02;;;;;;;8.70;4.15;;;15.30;99.90;;;;;;5037757;28;20046;-62
2023/06/07 00:08:28;;;;;;;8.27;3.60;;;15.30;99.90;;;;;;5039582;28;20071;-63
2023/06/07 00:10:55;;;;;;;8.18;3.88;;;15.30;99.90;;;;;;5040042;28;20045;-62
2023/06/07 00:13:20;;;;;;;8.13;3.55;;;15.40;99.90;;;;;;5038813;28;20041;-62
2023/06/07 00:15:46;;;;;;;;;;;15.40;99.90;;;;;;5037018;28;20099;-62
2023/06/07 00:18:12;;;;;;;6.45;3.78;;;15.30;99.90;;;;;;5029268;28;19971;-62
2023/06/07 00:20:37;;;;;;;;;;;15.40;99.90;;;;;;5025087;28;20053;-62
2023/06/07 00:23:05;;;;;;;10.50;4.43;;;15.40;99.90;;;;;;5024709;28;20325;-62
2023/06/07 00:25:30;;;;;;;11.05;4.30;;;15.40;99.90;;;;;;5025150;28;20103;-62
2023/06/07 00:27:56;;;;;;;;;;;15.50;99.90;;;;;;5025115;28;20047;-62
2023/06/07 00:30:21;;;;;;;6.13;3.92;;;15.50;99.90;;;;;;5023894;28;19924;-62
2023/06/07 00:32:47;;;;;;;8.13;4.38;;;15.50;99.90;;;;;;5022809;28;20061;-62
2023/06/07 00:35:13;;;;;;;;;;;15.50;99.90;;;;;;5025249;28;20738;-62
2023/06/07 00:37:38;;;;;;;8.60;3.75;;;15.50;99.90;;;;;;5019156;28;19960;-62
2023/06/07 00:40:07;;;;;;;;;;;15.50;99.90;;;;;;5024705;28;20461;-62
2023/06/07 00:42:33;;;;;;;9.18;4.15;;;15.50;99.90;;;;;;5022865;28;19924;-62
2023/06/07 00:44:59;;;;;;;;;;;15.50;99.90;;;;;;5025123;28;20029;-62
2023/06/07 00:47:25;;;;;;;11.25;4.10;;;15.50;99.90;;;;;;5023183;28;20044;-62
2023/06/07 00:49:52;;;;;;;7.70;4.55;;;15.50;99.90;;;;;;5025222;28;20851;-62
2023/06/07 00:52:18;;;;;;;8.48;4.72;;;15.40;99.90;;;;;;5024444;28;20103;-62
2023/06/07 00:54:44;;;;;;;;;;;15.40;99.90;;;;;;5025146;28;20493;-62
2023/06/07 00:57:10;;;;;;;6.40;4.32;;;15.40;99.90;;;;;;5025285;28;19979;-63
2023/06/07 00:59:37;;;;;;;8.93;4.25;;;15.40;99.90;;;;;;5024382;28;20103;-62
2023/06/07 01:02:03;;;;;;;12.13;4.10;;;15.40;99.90;;;;;;5024990;28;20121;-62
2023/06/07 01:04:29;;;;;;;;;;;15.40;99.90;;;;;;5024808;28;20152;-62
2023/06/07 01:06:55;;;;;;;7.90;4.55;;;15.40;99.90;;;;;;5024018;28;19931;-62
2023/06/07 01:09:22;;;;;;;6.68;4.30;;;15.40;99.90;;;;;;5025681;28;20106;-59
2023/06/07 01:11:50;;;;;;;12.57;4.32;;;15.40;99.90;;;;;;5016399;28;20033;-62
2023/06/07 01:14:17;;;;;;;11.63;4.75;;;15.40;99.90;;;;;;5022993;28;20037;-62
2023/06/07 01:16:45;;;;;;;6.15;4.43;;;15.30;99.90;;;;;;5022983;28;20756;-62
2023/06/07 01:19:27;;;;;;;9.68;4.47;;;15.30;99.90;;;;;;5024573;28;20045;-62
2023/06/07 01:22:06;;;;;;;8.63;4.70;;;15.30;99.90;;;;;;5022119;28;20033;-62
2023/06/07 01:24:37;;;;;;;10.43;4.57;;;15.30;99.90;;;;;;5022619;28;20029;-62
2023/06/07 01:27:07;;;;;;;8.30;3.95;;;15.30;99.90;;;;;;5023876;28;20475;-62
2023/06/07 01:29:33;;;;;;;8.43;4.72;;;15.30;99.90;;;;;;5024271;28;20045;-62
2023/06/07 01:32:04;;;;;;;13.18;4.15;;;15.30;99.90;;;;;;5024882;28;20124;-63
2023/06/07 01:34:32;;;;;;;10.85;4.63;;;15.30;99.90;;;;;;5023780;28;20036;-62
2023/06/07 01:36:58;;;;;;;10.75;5.20;;;15.30;99.90;;;;;;5022120;28;20083;-63
2023/06/07 01:39:25;;;;;;;9.05;4.75;;;15.30;99.90;;;;;;5023839;28;20110;-63
2023/06/07 01:41:52;;;;;;;9.38;5.28;;;15.30;99.90;;;;;;5023589;28;20122;-63
2023/06/07 01:44:18;;;;;;;9.63;5.13;;;15.30;99.90;;;;;;5024214;28;20038;-62
2023/06/07 01:46:44;;;;;;;12.90;4.90;;;15.30;99.90;;;;;;5024855;28;20409;-60
2023/06/07 01:49:11;;;;;;;12.25;5.55;;;15.30;99.90;;;;;;5025404;28;20071;-63
2023/06/07 01:51:37;;;;;;;8.75;4.40;;;15.20;99.90;;;;;;5024557;28;20041;-63
2023/06/07 01:54:03;;;;;;;;;;;15.20;99.90;;;;;;5025676;28;20199;-63
2023/06/07 01:56:39;;;;;;;12.07;4.70;;;15.20;99.90;;;;;;5023258;28;19928;-62
2023/06/07 01:59:18;;;;;;;15.25;4.95;;;15.20;99.90;;;;;;5020830;28;20033;-63
2023/06/07 02:02:00;;;;;;;11.13;5.40;;;15.30;99.90;;;;;;5024699;28;20030;-61
2023/06/07 02:04:30;;;;;;;14.05;6.28;;;15.30;99.90;;;;;;5023307;28;20077;-62
2023/06/07 02:07:01;;;;;;;9.27;5.60;;;15.30;99.90;;;;;;5022965;28;20056;-59
2023/06/07 02:09:28;;;;;;;11.52;6.18;;;15.20;99.90;;;;;;5025319;28;20048;-61
2023/06/07 02:11:55;;;;;;;14.40;5.75;;;15.20;99.90;;;;;;5025411;28;20179;-61
2023/06/07 02:14:21;;;;;;;11.70;5.63;;;15.20;99.90;;;;;;5025180;28;20041;-61
2023/06/07 02:16:46;;;;;;;;;;;15.30;99.90;;;;;;5025385;28;20103;-60
2023/06/07 02:19:13;;;;;;;11.35;5.80;;;15.20;99.90;;;;;;5024687;28;19968;-62
2023/06/07 02:21:39;;;;;;;10.95;5.78;;;15.20;99.90;;;;;;5024237;28;20045;-62
2023/06/07 02:24:08;;;;;;;;;;;15.20;99.90;;;;;;5017217;28;20034;-62
2023/06/07 02:26:34;;;;;;;7.32;4.40;;;15.20;99.90;;;;;;5019854;28;20371;-62
2023/06/07 02:28:59;;;;;;;;;;;15.20;99.90;;;;;;5026211;28;20037;-63
2023/06/07 02:31:25;;;;;;;8.65;4.28;;;15.20;99.90;;;;;;5016104;28;19917;-62
2023/06/07 02:33:51;;;;;;;11.85;4.68;;;15.20;99.90;;;;;;5023556;28;20041;-62
2023/06/07 02:36:25;;;;;;;;;;;15.20;99.90;;;;;;5025064;28;20084;-62
2023/06/07 02:38:51;;;;;;;17.63;6.68;;;15.20;99.90;;;;;;5021457;28;19925;-61
2023/06/07 02:41:17;;;;;;;10.00;5.03;;;15.20;99.90;;;;;;5024870;28;20491;-61
2023/06/07 02:43:44;;;;;;;9.18;5.03;;;15.20;99.90;;;;;;5023123;28;20042;-61
2023/06/07 02:46:11;;;;;;;11.93;5.53;;;15.20;99.90;;;;;;5024537;28;20128;-62
2023/06/07 02:48:37;;;;;;;10.93;5.32;;;15.20;99.90;;;;;;5022242;28;20049;-62
2023/06/07 02:51:03;;;;;;;11.73;5.35;;;15.20;99.90;;;;;;5024023;28;20129;-62
2023/06/07 02:53:30;;;;;;;;;;;15.20;99.90;;;;;;5016741;28;20113;-62
2023/06/07 02:55:55;;;;;;;11.05;4.30;;;15.20;99.90;;;;;;5021193;28;20468;-63
2023/06/07 02:58:21;;;;;;;9.98;5.65;;;15.20;99.90;;;;;;5020950;28;20128;-62
2023/06/07 03:00:49;;;;;;;;;;;15.20;99.90;;;;;;5024564;28;20041;-62
2023/06/07 03:03:18;;;;;;;16.33;5.32;;;15.20;99.90;;;;;;5022456;28;19921;-62
2023/06/07 03:05:46;;;;;;;10.00;4.68;;;15.10;99.90;;;;;;5024318;28;20463;-63
2023/06/07 03:08:12;;;;;;;14.18;5.85;;;15.10;99.90;;;;;;5021219;28;20708;-60
2023/06/07 03:10:38;;;;;;;;;;;15.20;99.90;;;;;;5021635;28;20095;-62
2023/06/07 03:13:05;;;;;;;9.43;4.70;;;15.10;99.90;;;;;;5022222;28;20003;-60
2023/06/07 03:15:32;;;;;;;16.20;6.30;;;15.20;99.90;;;;;;5022642;28;20025;-61
2023/06/07 03:17:58;;;;;;;13.15;5.97;;;15.20;99.90;;;;;;5020964;28;20508;-62
2023/06/07 03:20:24;;;;;;;11.07;5.55;;;15.20;99.90;;;;;;5021601;28;20092;-61
2023/06/07 03:22:49;;;;;;;;;;;15.10;99.90;;;;;;5019460;28;20045;-62
2023/06/07 03:25:15;;;;;;;9.25;5.70;;;15.10;99.90;;;;;;5018397;28;20380;-63
2023/06/07 03:27:41;;;;;;;;;;;15.10;99.90;;;;;;5017854;28;20038;-62
2023/06/07 03:30:07;;;;;;;8.65;5.03;;;15.10;99.90;;;;;;5023045;28;19921;-61
2023/06/07 03:32:33;;;;;;;9.23;4.80;;;15.10;99.90;;;;;;5018009;28;20048;-61
2023/06/07 03:34:58;;;;;;;;;;;15.10;99.90;;;;;;5023222;28;20790;-62
2023/06/07 03:37:24;;;;;;;7.15;4.72;;;15.10;99.90;;;;;;5021683;28;19943;-62
2023/06/07 03:39:50;;;;;;;;;;;15.00;99.90;;;;;;5020699;28;20037;-61
2023/06/07 03:42:15;;;;;;;12.98;5.28;;;15.00;99.90;;;;;;5022455;28;19971;-61
2023/06/07 03:44:41;;;;;;;;;;;15.10;99.90;;;;;;5021525;28;20548;-62
2023/06/07 03:47:06;;;;;;;13.00;5.82;;;15.10;99.90;;;;;;5024766;28;19924;-62
2023/06/07 03:49:32;;;;;;;;;;;15.10;99.90;;;;;;5023632;28;20788;-62
2023/06/07 03:51:57;;;;;;;11.90;5.80;;;15.10;99.90;;;;;;5023604;28;19924;-62
2023/06/07 03:54:23;;;;;;;;;;;15.10;99.90;;;;;;5026451;28;20068;-62
2023/06/07 03:56:48;;;;;;;10.63;6.00;;;15.10;99.90;;;;;;5025390;28;19925;-62
2023/06/07 03:59:15;;;;;;;11.07;6.18;;;15.00;99.90;;;;;;5025856;28;20103;-60
2023/06/07 04:01:40;;;;;;;13.00;6.78;;;15.00;99.90;;;;;;5025111;28;20047;-62
2023/06/07 04:04:07;;;;;;;;;;;15.00;99.90;;;;;;5027275;28;20048;-61
2023/06/07 04:06:34;;;;;;;14.95;7.45;;;14.90;99.90;;;;;;5023636;28;19929;-62
2023/06/07 04:08:59;;;;;;;12.75;6.78;;;14.90;99.90;;;;;;5025473;28;20088;-61
2023/06/07 04:11:27;;;;;;;;;;;14.90;99.90;;;;;;5027139;28;20072;-61
2023/06/07 04:13:52;;;;;;;;;;;14.80;99.90;;;;;;5025490;28;19944;-62
2023/06/07 04:16:18;;;;;;;11.75;6.22;;;14.80;99.90;;;;;;5027930;28;20373;-61
2023/06/07 04:18:43;;;;;;;;;;;14.80;99.90;;;;;;5026805;28;20061;-62
2023/06/07 04:21:09;;;;;;;12.68;6.85;;;14.80;99.90;;;;;;5028068;28;19999;-62
2023/06/07 04:23:35;;;;;;;;;;;14.70;99.90;;;;;;5023898;28;20042;-63
2023/06/07 04:26:04;;;;;;;15.80;7.25;;;14.70;99.90;;;;;;5027452;28;19924;-62
2023/06/07 04:28:30;;;;;;;16.85;7.80;;;14.70;99.90;;;;;;5026522;28;20045;-62
2023/06/07 04:30:57;;;;;;;;;;;14.70;99.90;;;;;;5026473;28;20045;-62
2023/06/07 04:33:23;;;;;;;14.50;7.40;;;14.60;99.90;;;;;;5026696;28;19917;-62
2023/06/07 04:35:50;;;;;;;17.05;8.18;;;14.50;99.90;;;;;;5024265;28;20692;-62
2023/06/07 04:38:20;;;;;;;18.65;8.40;;;14.60;99.90;;;;;;5024586;28;20065;-63
2023/06/07 04:40:48;;;;;;;16.73;7.68;;;14.50;99.90;;;;;;5020814;28;20136;-63
2023/06/07 04:43:17;;;;;;;16.50;7.72;;;14.50;99.90;;;;;;5025113;28;20033;-62
2023/06/07 04:45:43;;;;;;;14.13;7.47;;;14.50;99.90;;;;;;5021830;28;20560;-62
2023/06/07 04:48:11;;;;;;;15.00;7.70;;;14.50;99.90;;;;;;5025145;28;20049;-61
2023/06/07 04:50:41;;;;;;;12.80;8.23;;;14.50;99.90;;;;;;5027265;28;20560;-62
2023/06/07 04:53:08;;;;;;;19.73;7.72;;;14.50;99.90;;;;;;5024427;28;20041;-62
2023/06/07 04:55:35;;;;;;;18.05;7.78;;;14.50;99.90;;;;;;5025335;28;20042;-60
2023/06/07 04:58:04;;;;;;;12.55;7.50;;;14.40;99.90;;;;;;5026275;28;20037;-63
2023/06/07 05:00:33;;;;;;;12.68;7.05;;;14.40;99.90;;;;;;5028053;28;20038;-62
2023/06/07 05:03:06;;;;;;;13.23;7.57;;;14.40;99.90;;;;;;5046661;28;20037;-62
2023/06/07 05:05:33;;;;;;;15.25;7.53;;;14.40;99.90;;;;;;5046168;28;20045;-61
2023/06/07 05:07:58;;;;;;;16.02;7.35;;;14.50;99.90;;;;;;5044643;28;20500;-62
2023/06/07 05:10:24;;;;;;;;;;;14.50;99.90;;;;;;5046431;28;20048;-62
2023/06/07 05:12:49;;;;;;;13.63;6.97;;;14.50;99.90;;;;;;5046214;28;19969;-63
2023/06/07 05:15:15;;;;;;;;;;;14.60;99.90;;;;;;5046659;28;20064;-61
2023/06/07 05:17:41;;;;;;;12.23;6.75;;;14.60;99.90;;;;;;5037293;28;19921;-62
2023/06/07 05:20:10;;;;;;;;;;;14.60;99.90;;;;;;5044808;28;20053;-63
2023/06/07 05:22:38;;;;;;;14.38;7.53;;;14.60;99.90;;;;;;5044362;28;19920;-63
2023/06/07 05:25:04;;;;;;;11.90;7.25;;;14.60;99.90;;;;;;5046373;28;20120;-63
2023/06/07 05:27:30;;;;;;;13.95;7.15;;;14.60;99.90;;;;;;5045083;28;20044;-62
2023/06/07 05:29:55;;;;;;;;;;;14.60;99.90;;;;;;5035311;28;20037;-63
2023/06/07 05:32:21;;;;;;;12.35;7.88;;;14.60;99.90;;;;;;5038394;28;20023;-63
2023/06/07 05:34:48;;;;;;;;;;;14.60;99.90;;;;;;5043864;28;20063;-63
2023/06/07 05:37:14;;;;;;;12.88;7.25;;;14.60;99.90;;;;;;5043329;28;19921;-63
2023/06/07 05:39:45;;;;;;;13.38;7.43;;;14.60;99.90;;;;;;5038056;28;20115;-63
2023/06/07 05:42:11;;;;;;;12.55;8.18;;;14.60;99.90;;;;;;5041408;28;20095;-63
2023/06/07 05:44:37;;;;;;;;;;;14.60;99.90;;;;;;5040653;28;20044;-62
2023/06/07 05:47:02;;;;;;;9.52;7.32;;;14.60;99.90;;;;;;5041714;28;19925;-62
2023/06/07 05:49:28;;;;;;;;;;;14.50;99.90;;;;;;5038206;28;20554;-62
2023/06/07 05:51:54;;;;;;;11.70;7.68;;;14.50;99.90;;;;;;5040437;28;19921;-62
2023/06/07 05:54:20;;;;;;;14.18;8.10;;;14.50;99.90;;;;;;5041476;28;20040;-63
2023/06/07 05:56:45;;;;;;;;;;;14.50;99.90;;;;;;5034357;28;20777;-62
2023/06/07 05:59:11;;;;;;;14.88;8.35;;;14.50;99.90;;;;;;5043602;28;20464;-63
2023/06/07 06:01:37;;;;;;;12.02;8.40;;;14.50;99.90;;;;;;5041366;28;20061;-63
2023/06/07 06:04:03;;;;;;;;;;;14.50;99.90;;;;;;5042868;28;20092;-63
2023/06/07 06:06:28;;;;;;;14.88;8.35;;;14.60;99.90;;;;;;5041431;28;20579;-62
2023/06/07 06:08:54;;;;;;;;;;;14.50;99.90;;;;;;5042470;28;20037;-62
2023/06/07 06:11:19;;;;;;;21.35;9.35;;;14.50;99.90;;;;;;5043209;28;19920;-63
2023/06/07 06:13:45;;;;;;;;;;;14.40;99.90;;;;;;5042527;28;20048;-63
2023/06/07 06:16:11;;;;;;;11.70;8.70;;;14.50;99.90;;;;;;5035858;28;19920;-63
2023/06/07 06:18:36;;;;;;;;;;;14.60;99.90;;;;;;5041521;28;20700;-65
2023/06/07 06:21:03;;;;;;;18.13;8.00;;;14.50;99.90;;;;;;5043704;28;19920;-62
2023/06/07 06:23:29;;;;;;;14.18;9.63;;;14.60;99.90;;;;;;5039908;28;20069;-63
2023/06/07 06:25:54;;;;;;;;;;;14.60;99.90;;;;;;5033172;28;20033;-62
2023/06/07 06:28:21;;;;;;;17.40;11.13;;;14.70;99.90;;;;;;5038144;28;19920;-64
2023/06/07 06:30:47;;;;;;;19.58;10.63;;;14.70;99.90;;;;;;5043153;28;20089;-63
2023/06/07 06:33:12;;;;;;;;;;;14.70;99.90;;;;;;5041834;28;20471;-63
2023/06/07 06:35:38;;;;;;;24.73;12.50;;;14.70;99.90;;;;;;5042945;28;19921;-62
2023/06/07 06:38:04;;;;;;;21.02;13.18;;;14.60;99.90;;;;;;5040284;28;20033;-62
2023/06/07 06:40:30;;;;;;;21.67;12.80;;;14.50;99.90;;;;;;5042906;28;20115;-62
2023/06/07 06:42:55;;;;;;;;;;;14.60;99.90;;;;;;5042959;28;20127;-62
2023/06/07 06:45:21;;;;;;;22.40;13.02;;;14.60;99.90;;;;;;5044005;28;20781;-61
2023/06/07 06:47:46;;;;;;;;;;;14.60;99.90;;;;;;5041370;28;20459;-61
2023/06/07 06:50:13;;;;;;;18.75;12.05;;;14.60;99.90;;;;;;5043315;28;19928;-62
2023/06/07 06:52:40;;;;;;;17.80;12.27;;;14.60;99.90;;;;;;5039630;28;20076;-62
2023/06/07 06:55:06;;;;;;;22.02;13.27;;;14.60;99.90;;;;;;5043297;28;20059;-63
2023/06/07 06:57:32;;;;;;;;;;;14.60;99.90;;;;;;5039403;28;20041;-62
2023/06/07 06:59:59;;;;;;;18.80;12.80;;;14.60;99.90;;;;;;5044830;28;20349;-65
2023/06/07 07:02:25;;;;;;;19.92;14.80;;;14.60;99.90;;;;;;5043015;28;20041;-62
2023/06/07 07:04:50;;;;;;;;;;;14.50;99.90;;;;;;5044663;28;20083;-62
2023/06/07 07:07:16;;;;;;;22.52;13.60;;;14.50;99.90;;;;;;5043874;28;19930;-62
2023/06/07 07:09:42;;;;;;;;;;;14.50;99.90;;;;;;5043451;28;20037;-62
2023/06/07 07:12:08;;;;;;;21.00;11.90;;;14.50;99.90;;;;;;5036507;28;20646;-62
2023/06/07 07:14:33;;;;;;;;;;;14.50;99.90;;;;;;5043447;28;20083;-63
2023/06/07 07:17:01;;;;;;;15.25;11.95;;;14.60;99.90;;;;;;5043564;28;19993;-62
2023/06/07 07:19:27;;;;;;;;;;;14.60;99.90;;;;;;5042643;28;20515;-62
2023/06/07 07:21:52;;;;;;;18.00;11.75;;;14.50;99.90;;;;;;5041745;28;19944;-65
2023/06/07 07:24:18;;;;;;;;;;;14.50;99.90;;;;;;5033425;28;20056;-62
2023/06/07 07:26:44;;;;;;;16.30;11.32;;;14.70;99.90;;;;;;5039052;28;19925;-62
2023/06/07 07:29:10;;;;;;;15.50;10.93;;;14.60;99.90;;;;;;5047380;28;20044;-62
2023/06/07 07:31:35;;;;;;;;;;;14.60;99.90;;;;;;5045319;28;20051;-62
2023/06/07 07:34:02;;;;;;;14.77;11.73;;;14.60;99.90;;;;;;5046246;28;19924;-62
2023/06/07 07:36:29;;;;;;;23.33;14.18;;;14.40;99.90;;;;;;5045375;28;20051;-61
2023/06/07 07:38:55;;;;;;;15.38;11.95;;;14.50;99.90;;;;;;5045819;28;20040;-62
2023/06/07 07:41:20;;;;;;;;;;;14.50;99.90;;;;;;5045453;28;20045;-62
2023/06/07 07:43:46;;;;;;;18.10;13.43;;;14.50;99.90;;;;;;5045563;28;20341;-63
2023/06/07 07:46:13;;;;;;;;;;;14.50;99.90;;;;;;5046847;28;20035;-61
2023/06/07 07:48:38;;;;;;;24.73;16.05;;;14.60;99.90;;;;;;5045764;28;19956;-61
2023/06/07 07:51:04;;;;;;;;;;;14.50;99.90;;;;;;5047765;28;20087;-62
2023/06/07 07:53:31;;;;;;;18.45;13.18;;;14.50;99.90;;;;;;5044023;28;20366;-61
2023/06/07 07:55:57;;;;;;;17.75;13.10;;;14.40;99.90;;;;;;5045741;28;20033;-61
2023/06/07 07:58:25;;;;;;;16.75;11.93;;;14.50;99.90;;;;;;5044085;28;20048;-61
2023/06/07 08:00:51;;;;;;;16.73;12.00;;;14.50;99.90;;;;;;5045695;28;20043;-61
2023/06/07 08:03:17;;;;;;;19.90;12.98;;;14.50;99.90;;;;;;5044269;28;20821;-62
2023/06/07 08:05:43;;;;;;;17.75;11.73;;;14.60;99.90;;;;;;5043992;28;20040;-61
2023/06/07 08:08:09;;;;;;;;;;;14.60;99.90;;;;;;5043110;28;20090;-62
2023/06/07 08:10:34;;;;;;;18.95;12.43;;;14.60;99.90;;;;;;5045957;28;19927;-61
2023/06/07 08:13:00;;;;;;;;;;;14.70;99.90;;;;;;5044854;28;20056;-61
2023/06/07 08:15:25;;;;;;;14.32;11.48;;;14.80;99.90;;;;;;5046608;28;19927;-62
2023/06/07 08:17:51;;;;;;;;;;;14.80;99.90;;;;;;5045450;28;20594;-61
2023/06/07 08:20:17;;;;;;;16.17;10.57;;;14.80;99.90;;;;;;5047362;28;19920;-61
2023/06/07 08:22:43;;;;;;;16.50;12.07;;;14.80;99.90;;;;;;5044438;28;20068;-60
2023/06/07 08:25:09;;;;;;;14.90;11.55;;;14.80;99.90;;;;;;5044982;28;20052;-61
2023/06/07 08:27:35;;;;;;;;;;;14.70;99.90;;;;;;5044985;28;20033;-61
2023/06/07 08:30:01;;;;;;;17.93;12.97;;;14.70;99.90;;;;;;5039675;28;19920;-60
2023/06/07 08:32:27;;;;;;;18.70;12.98;;;14.80;99.90;;;;;;5039572;28;20069;-61
2023/06/07 08:34:54;;;;;;;;;;;14.90;99.90;;;;;;5047029;28;20049;-61
2023/06/07 08:37:21;;;;;;;18.70;11.93;;;14.90;99.90;;;;;;5045135;28;19920;-61
2023/06/07 08:39:47;;;;;;;23.35;14.73;;;14.90;99.90;;;;;;5045092;28;20052;-61
2023/06/07 08:42:12;;;;;;;;;;;14.90;99.90;;;;;;5045450;28;20041;-61
2023/06/07 08:44:40;;;;;;;19.67;14.63;;;14.90;99.90;;;;;;5043715;28;19948;-61
2023/06/07 08:47:06;;;;;;;22.92;16.13;;;14.80;99.90;;;;;;5045844;28;20040;-61
2023/06/07 08:49:36;;;;;;;23.83;16.85;;;14.80;99.90;;;;;;5048342;28;20048;-62
2023/06/07 08:52:07;;;;;;;21.60;16.02;;;14.80;99.90;;;;;;5046166;28;20044;-61
2023/06/07 08:54:33;;;;;;;21.00;15.55;;;14.80;99.90;;;;;;5044197;28;20048;-61
2023/06/07 08:56:59;;;;;;;18.30;14.48;;;14.90;99.90;;;;;;5046388;28;20072;-61
2023/06/07 08:59:26;;;;;;;22.63;15.93;;;14.90;99.90;;;;;;5046406;28;20049;-60
2023/06/07 09:01:52;;;;;;;27.92;18.42;;;15.00;99.90;;;;;;5035165;28;20696;-60
2023/06/07 09:04:18;;;;;;;;;;;15.00;99.90;;;;;;5043656;28;20041;-61
2023/06/07 09:06:44;;;;;;;22.38;16.65;;;15.00;99.90;;;;;;5043507;28;19931;-61
2023/06/07 09:09:11;;;;;;;20.90;15.55;;;15.10;99.90;;;;;;5045037;28;20036;-59
2023/06/07 09:11:36;;;;;;;20.77;15.95;;;15.10;99.90;;;;;;5044222;28;20591;-62
2023/06/07 09:14:02;;;;;;;;;;;15.10;99.90;;;;;;5042479;28;20036;-62
2023/06/07 09:16:27;;;;;;;22.63;16.85;;;15.00;99.90;;;;;;5044812;28;19924;-61
2023/06/07 09:18:53;;;;;;;24.48;16.65;;;15.00;99.90;;;;;;5044367;28;20210;-61
2023/06/07 09:21:28;;;;;;;;;;;15.00;99.90;;;;;;5017168;28;20146;-60
2023/06/07 09:23:57;;;;;;;20.58;15.07;;;15.10;99.90;;;;;;5034797;28;19944;-63
2023/06/07 09:26:34;;;;;;;22.88;16.80;;;15.10;99.90;;;;;;5044008;28;20049;-63
2023/06/07 09:29:03;;;;;;;;;;;15.00;99.90;;;;;;5040014;28;20037;-63
2023/06/07 09:31:32;;;;;;;21.25;16.30;;;15.00;99.90;;;;;;5042555;28;19950;-63
2023/06/07 09:33:58;;;;;;;23.15;16.40;;;15.10;99.90;;;;;;5042319;28;20072;-61
2023/06/07 09:36:27;;;;;;;24.55;18.50;;;15.20;99.90;;;;;;5043394;28;20147;-61
2023/06/07 09:38:52;;;;;;;23.05;16.60;;;15.20;99.90;;;;;;5042241;28;20048;-62
2023/06/07 09:41:18;;;;;;;;;;;15.20;99.90;;;;;;5041782;28;20306;-62
2023/06/07 09:43:51;;;;;;;24.38;17.92;;;15.20;99.90;;;;;;5040300;28;19917;-62
2023/06/07 09:46:18;;;;;;;24.38;17.63;;;15.30;99.90;;;;;;5039490;28;20052;-62
2023/06/07 09:48:52;;;;;;;24.55;17.33;;;15.30;99.90;;;;;;5040656;28;20048;-62
2023/06/07 09:51:19;;;;;;;25.08;16.20;;;15.40;99.90;;;;;;5035099;28;20854;-62
2023/06/07 09:53:58;;;;;;;20.70;16.00;;;15.50;99.90;;;;;;5040051;28;20056;-62
2023/06/07 09:56:24;;;;;;;26.67;19.38;;;15.60;99.90;;;;;;5046255;28;20056;-62
2023/06/07 09:59:12;;;;;;;23.10;17.83;;;15.60;99.90;;;;;;5040207;28;20051;-62
2023/06/07 10:01:43;;;;;;;19.58;14.98;;;15.60;99.90;;;;;;5037657;28;20041;-63
2023/06/07 10:04:11;;;;;;;23.27;14.90;;;15.70;99.90;;;;;;5044295;28;20037;-62
2023/06/07 10:06:41;;;;;;;19.02;14.43;;;15.90;99.90;;;;;;5041987;28;20750;-63
2023/06/07 10:09:08;;;;;;;16.10;13.52;;;15.90;99.90;;;;;;5044032;28;20033;-63
2023/06/07 10:11:39;;;;;;;20.92;15.50;;;16.00;99.90;;;;;;5039588;28;20036;-62
2023/06/07 10:14:14;;;;;;;19.80;14.02;;;16.00;99.90;;;;;;5042532;28;20039;-63
2023/06/07 10:17:05;;;;;;;18.67;14.35;;;16.10;99.90;;;;;;5034502;28;20037;-63
2023/06/07 10:19:36;;;;;;;18.88;14.45;;;16.10;99.90;;;;;;5038667;28;20075;-63
2023/06/07 10:22:04;;;;;;;20.23;14.10;;;16.10;99.90;;;;;;5033291;28;20056;-63
2023/06/07 10:24:35;;;;;;;20.45;16.08;;;16.20;99.90;;;;;;5043796;28;20037;-62
2023/06/07 10:27:11;;;;;;;20.15;15.18;;;16.20;99.90;;;;;;5042649;28;20491;-63
2023/06/07 10:29:55;;;;;;;22.98;16.25;;;16.20;99.90;;;;;;5074385;28;20045;-62
2023/06/07 10:32:31;;;;;;;22.20;15.95;;;16.30;99.90;;;;;;5041755;28;20140;-63
2023/06/07 10:34:59;;;;;;;17.85;13.85;;;16.50;99.90;;;;;;5040697;28;20179;-62
2023/06/07 10:37:30;;;;;;;19.65;14.05;;;16.60;99.90;;;;;;5043812;28;20580;-62
2023/06/07 10:39:56;;;;;;;17.35;13.70;;;16.70;99.90;;;;;;5036310;28;20048;-62
2023/06/07 10:42:23;;;;;;;17.58;12.10;;;16.90;99.90;;;;;;5037376;28;20130;-61
2023/06/07 10:44:49;;;;;;;15.38;11.23;;;17.10;99.90;;;;;;5041421;28;20056;-62
2023/06/07 10:47:21;;;;;;;16.95;12.70;;;17.20;99.90;;;;;;5038561;28;20045;-62
2023/06/07 10:49:47;;;;;;;13.93;11.70;;;17.30;99.90;;;;;;5042797;28;20044;-62
2023/06/07 10:52:15;;;;;;;;;;;17.30;99.90;;;;;;5042772;28;20508;-61
2023/06/07 10:54:42;;;;;;;16.05;12.40;;;17.20;99.90;;;;;;5038628;28;20007;-61
2023/06/07 10:57:09;;;;;;;19.20;11.90;;;17.20;99.90;;;;;;5033884;28;20076;-62
2023/06/07 10:59:39;;;;;;;13.07;10.57;;;17.10;99.90;;;;;;5041430;28;20036;-62
2023/06/07 11:02:21;;;;;;;16.38;12.38;;;17.20;99.90;;;;;;5036089;28;20043;-62
2023/06/07 11:05:08;;;;;;;17.40;12.32;;;17.30;99.90;;;;;;5041068;28;20041;-62
2023/06/07 11:07:37;;;;;;;17.23;11.77;;;17.20;99.90;;;;;;5040888;28;20052;-60
2023/06/07 11:10:06;;;;;;;16.83;12.80;;;17.10;99.90;;;;;;5041995;28;20041;-62
2023/06/07 11:12:35;;;;;;;19.67;13.25;;;17.00;99.90;;;;;;5038095;28;20130;-62
2023/06/07 11:15:23;;;;;;;16.95;13.10;;;16.90;99.90;;;;;;5037089;28;20045;-63
2023/06/07 11:17:53;;;;;;;17.73;12.05;;;16.80;99.90;;;;;;5038484;28;20049;-62
2023/06/07 11:20:37;;;;;;;18.00;11.38;;;16.70;99.90;;;;;;5035229;28;20428;-63
2023/06/07 11:23:26;;;;;;;14.73;11.68;;;16.60;99.90;;;;;;5035138;28;20047;-62
2023/06/07 11:26:06;;;;;;;16.42;11.63;;;16.50;99.90;;;;;;5037680;28;20037;-63
2023/06/07 11:28:34;;;;;;;15.20;10.52;;;16.50;99.90;;;;;;5033483;28;20055;-63
2023/06/07 11:31:02;;;;;;;15.38;10.00;;;16.40;99.90;;;;;;5040721;28;20102;-62
2023/06/07 11:33:28;;;;;;;17.02;11.15;;;16.50;99.90;;;;;;5039008;28;20047;-63
2023/06/07 11:35:55;;;;;;;16.00;11.05;;;16.50;99.90;;;;;;5030015;28;20134;-62
2023/06/07 11:38:22;;;;;;;14.32;10.60;;;16.50;99.90;;;;;;5036061;28;20145;-62
2023/06/07 11:40:48;;;;;;;17.83;10.60;;;16.60;99.90;;;;;;5034397;28;20103;-63
2023/06/07 11:43:17;;;;;;;14.23;9.93;;;16.70;99.90;;;;;;5037809;28;20128;-62
2023/06/07 11:45:43;;;;;;;13.00;9.95;;;16.90;99.90;;;;;;5040315;28;20044;-61
2023/06/07 11:48:10;;;;;;;18.48;12.73;;;17.30;99.90;;;;;;5037848;28;20080;-62
2023/06/07 11:50:40;;;;;;;15.48;10.75;;;17.50;99.90;;;;;;5035991;28;20045;-62
2023/06/07 11:53:10;;;;;;;18.45;9.95;;;17.50;99.90;;;;;;5038405;28;20037;-62
2023/06/07 11:55:38;;;;;;;15.45;11.80;;;17.30;99.90;;;;;;5040161;28;20040;-62
2023/06/07 11:58:06;;;;;;;13.23;10.40;;;17.20;99.90;;;;;;5038700;28;20037;-61
2023/06/07 12:00:33;;;;;;;14.57;10.43;;;17.20;99.90;;;;;;5032230;28;20048;-63
2023/06/07 12:03:04;;;;;;;16.60;10.68;;;17.20;99.90;;;;;;5039344;28;20378;-62
2023/06/07 12:05:30;;;;;;;15.23;10.27;;;17.30;99.90;;;;;;5038306;28;20737;-62
2023/06/07 12:08:04;;;;;;;13.23;10.38;;;17.30;99.90;;;;;;5040805;28;20044;-61
2023/06/07 12:10:32;;;;;;;13.38;9.30;;;17.20;99.90;;;;;;5042653;28;20381;-61
2023/06/07 12:13:18;;;;;;;12.43;8.80;;;17.40;99.90;;;;;;5040183;28;20523;-61
2023/06/07 12:15:45;;;;;;;13.43;9.05;;;17.40;99.90;;;;;;5038187;28;20030;-62
2023/06/07 12:18:19;;;;;;;15.77;9.70;;;17.40;99.90;;;;;;5042408;28;20053;-61
2023/06/07 12:20:46;;;;;;;10.18;8.35;;;17.50;99.90;;;;;;5037261;28;20044;-62
2023/06/07 12:23:14;;;;;;;12.88;9.10;;;17.60;99.90;;;;;;5043455;28;20029;-62
2023/06/07 12:25:41;;;;;;;13.30;7.60;;;17.70;99.90;;;;;;5035139;28;20045;-63
2023/06/07 12:28:11;;;;;;;10.70;7.50;;;18.00;99.90;;;;;;5042748;28;20552;-62
2023/06/07 12:30:39;;;;;;;11.00;7.45;;;18.10;99.90;;;;;;5036172;28;20049;-63
2023/06/07 12:33:04;;;;;;;10.40;7.07;;;18.20;99.90;;;;;;5040833;28;20033;-62
2023/06/07 12:35:38;;;;;;;;;;;18.20;99.90;;;;;;5043486;28;20106;-62
2023/06/07 12:38:07;;;;;;;8.85;5.28;;;18.20;99.90;;;;;;5041237;28;19921;-62
2023/06/07 12:40:33;;;;;;;10.18;5.90;;;18.10;99.90;;;;;;5046203;28;20080;-61
2023/06/07 12:42:59;;;;;;;13.63;6.28;;;18.20;99.90;;;;;;5042996;28;20039;-62
2023/06/07 12:45:25;;;;;;;9.73;5.43;;;18.20;99.90;;;;;;5043013;28;20073;-63
2023/06/07 12:47:51;;;;;;;;;;;18.20;99.90;;;;;;5040031;28;20079;-60
2023/06/07 12:50:16;;;;;;;9.10;5.30;;;18.20;99.90;;;;;;5043270;28;19920;-62
2023/06/07 12:52:43;;;;;;;;;;;18.20;99.90;;;;;;5041939;28;20045;-62
2023/06/07 12:55:09;;;;;;;8.65;5.22;;;18.30;99.90;;;;;;5043659;28;20031;-62
2023/06/07 12:57:34;;;;;;;;;;;18.30;99.90;;;;;;5043109;28;20500;-61